Terminal Aerodrome Forecast
Issued by NWS Mt. Holly, NJ

Home | Current Version | Previous Version | Text Only | Print | Product List | Glossary On
Versions: 1 2 3 4 5 6 7 8 9 10 11 12 13 14 15 16 17 18 19 20
404
FTUS41 KPHI 221502 AAA
TAFILG
TAF AMD
KILG 221502Z 2215/2312 10005KT 6SM -SHRA OVC008
      TEMPO 2215/2219 2SM SHRA OVC005
     FM222000 15006KT P6SM OVC009
     FM230000 VRB03KT 4SM BR BKN007
     FM230800 36006KT P6SM BKN050=

USA.gov is the U.S. government's official web portal to all federal, state and local government web resources and services.